29  °C
Temperature
84  °F
Temperature
64  °F
 Dewpoint
18  °C
  Dewpoint
51  %
 Humidity
  Temperature
11  km/h
Wind Speed
6  kts
Wind Speed
7  mph
Wind Speed
3.1  m/s
Wind Speed
310°
North West

Wind Speed
Clear
Conditions
Pressure 1014.92 (hPa) - 29.97 (inHG)
Visibility 10.0 (km) - 6.2 (mi)

Sky Conditions
LGSA
Location Chania International 80 km (49.72 mi)
Metar :LGSA 221020Z 31006KT CAVOK 29/18 Q1015
Mon 22nd July 13:20 pm

Nearest Airport
https://www.checkwx.com/weather/LGSA
  Metar Aviation API Data Provided by https://www.checkwx.com/ Original CSS/SVG/PHP scripts by weather34.com © 2015-2019